Terminal Aerodrome Forecast
Issued by NWS

Home | Current Version | Previous Version | Text Only | Print | Product List | Glossary On
Versions: 1 2 3 4 5 6 7 8 9 10 11 12 13 14 15 16 17 18 19
479
FTUS43 KAPX 191136
TAFAPN
TAF
KAPN 191136Z 1912/2012 22007KT P6SM SCT180
     FM191800 22009G16KT P6SM BKN150 WS015/23040KT
     FM200600 25010KT P6SM BKN120
     FM200900 26009KT P6SM BKN022=

USA.gov is the U.S. government's official web portal to all federal, state and local government web resources and services.